Etna, Pennsylvania
Current Conditions -  °F | °C
As of 4:53 AM on Tuesday 21 Oct 2014 (Local Time) from KAGC Reporting Station
Overcast Overcast  
Wind Chill: 50°   Ceiling: 800
Heat Index: 50°   Visibility: 7mi
Dew Point: 46°   Wind: 7mph
Humidity: 86%   Direction: 230°SW
Pressure: 29.83"   Gusts: NA
Location:  40.5063°N, 79.9532°W
Report Text: KAGC 210853Z 23006KT 7SM BKN008 BKN011 OVC037 10/08 A2983 RMK AO2 CIG 005V009 SLP108 60003 T01000078 56004
Loading
Personal Weather Stations






























Interactive Weather Map
Tropical Storm Tracking
New forecast layout! Learn more

10-Day Weather Forecast

Advertisements
Track Severe Weather on mobile